sensor_id;sensor_type;location;lat;lon;timestamp;pressure;altitude;pressure_sealevel;temperature;humidity
2178;BME280;1095;50.992;6.798;2023-11-21T00:02:19;100344.97;;;9.49;100.00
2178;BME280;1095;50.992;6.798;2023-11-21T00:04:48;100346.44;;;9.51;100.00
2178;BME280;1095;50.992;6.798;2023-11-21T00:07:15;100354.59;;;9.48;100.00
2178;BME280;1095;50.992;6.798;2023-11-21T00:09:42;100354.91;;;9.45;100.00
2178;BME280;1095;50.992;6.798;2023-11-21T00:12:10;100357.34;;;9.47;100.00
2178;BME280;1095;50.992;6.798;2023-11-21T00:14:37;100354.91;;;9.45;100.00
2178;BME280;1095;50.992;6.798;2023-11-21T00:17:04;100356.88;;;9.43;100.00
2178;BME280;1095;50.992;6.798;2023-11-21T00:19:30;100358.81;;;9.41;100.00
2178;BME280;1095;50.992;6.798;2023-11-21T00:21:57;100356.69;;;9.37;100.00
2178;BME280;1095;50.992;6.798;2023-11-21T00:24:24;100359.59;;;9.34;100.00
2178;BME280;1095;50.992;6.798;2023-11-21T00:26:51;100363.03;;;9.34;100.00
2178;BME280;1095;50.992;6.798;2023-11-21T00:29:19;100364.66;;;9.35;100.00
2178;BME280;1095;50.992;6.798;2023-11-21T00:31:46;100365.03;;;9.40;100.00
2178;BME280;1095;50.992;6.798;2023-11-21T00:34:12;100377.72;;;9.35;100.00
2178;BME280;1095;50.992;6.798;2023-11-21T00:36:39;100366.09;;;9.29;100.00
2178;BME280;1095;50.992;6.798;2023-11-21T00:39:06;100380.28;;;9.27;100.00
2178;BME280;1095;50.992;6.798;2023-11-21T00:41:34;100374.59;;;9.31;100.00
2178;BME280;1095;50.992;6.798;2023-11-21T00:44:01;100374.47;;;9.15;100.00
2178;BME280;1095;50.992;6.798;2023-11-21T00:46:29;100383.50;;;9.21;100.00
2178;BME280;1095;50.992;6.798;2023-11-21T00:48:56;100381.84;;;9.20;100.00
2178;BME280;1095;50.992;6.798;2023-11-21T00:51:23;100380.44;;;9.25;100.00
2178;BME280;1095;50.992;6.798;2023-11-21T00:53:49;100379.59;;;9.25;100.00
2178;BME280;1095;50.992;6.798;2023-11-21T00:56:16;100378.28;;;9.21;100.00
2178;BME280;1095;50.992;6.798;2023-11-21T00:58:43;100385.44;;;9.19;100.00
2178;BME280;1095;50.992;6.798;2023-11-21T01:01:14;100388.06;;;9.19;100.00
2178;BME280;1095;50.992;6.798;2023-11-21T01:03:42;100385.97;;;9.22;100.00
2178;BME280;1095;50.992;6.798;2023-11-21T01:06:09;100382.00;;;9.18;100.00
2178;BME280;1095;50.992;6.798;2023-11-21T01:08:36;100388.50;;;9.14;100.00
2178;BME280;1095;50.992;6.798;2023-11-21T01:11:03;100392.69;;;9.07;100.00
2178;BME280;1095;50.992;6.798;2023-11-21T01:13:30;100399.25;;;9.11;100.00
2178;BME280;1095;50.992;6.798;2023-11-21T01:15:57;100406.09;;;9.12;100.00
2178;BME280;1095;50.992;6.798;2023-11-21T01:18:23;100400.63;;;8.97;100.00
2178;BME280;1095;50.992;6.798;2023-11-21T01:20:52;100404.78;;;9.08;100.00
2178;BME280;1095;50.992;6.798;2023-11-21T01:23:19;100406.88;;;9.05;100.00
2178;BME280;1095;50.992;6.798;2023-11-21T01:25:45;100405.53;;;9.01;100.00
2178;BME280;1095;50.992;6.798;2023-11-21T01:28:12;100409.44;;;8.96;100.00
2178;BME280;1095;50.992;6.798;2023-11-21T01:30:39;100406.50;;;8.99;100.00
2178;BME280;1095;50.992;6.798;2023-11-21T01:33:05;100415.66;;;9.04;100.00
2178;BME280;1095;50.992;6.798;2023-11-21T01:35:33;100409.25;;;8.98;100.00
2178;BME280;1095;50.992;6.798;2023-11-21T01:38:01;100416.63;;;9.03;100.00
2178;BME280;1095;50.992;6.798;2023-11-21T01:40:27;100420.50;;;8.98;100.00
2178;BME280;1095;50.992;6.798;2023-11-21T01:42:54;100423.63;;;9.02;100.00
2178;BME280;1095;50.992;6.798;2023-11-21T01:45:21;100418.09;;;8.97;100.00
2178;BME280;1095;50.992;6.798;2023-11-21T01:47:49;100424.72;;;8.91;100.00
2178;BME280;1095;50.992;6.798;2023-11-21T01:50:16;100428.91;;;8.84;100.00
2178;BME280;1095;50.992;6.798;2023-11-21T01:52:44;100427.84;;;8.77;100.00
2178;BME280;1095;50.992;6.798;2023-11-21T01:55:14;100422.56;;;8.69;100.00
2178;BME280;1095;50.992;6.798;2023-11-21T01:57:43;100418.06;;;8.61;100.00
2178;BME280;1095;50.992;6.798;2023-11-21T02:00:11;100425.47;;;8.66;100.00
2178;BME280;1095;50.992;6.798;2023-11-21T02:02:41;100420.09;;;8.50;100.00
2178;BME280;1095;50.992;6.798;2023-11-21T02:05:09;100419.47;;;8.56;100.00
2178;BME280;1095;50.992;6.798;2023-11-21T02:07:37;100420.09;;;8.50;100.00
2178;BME280;1095;50.992;6.798;2023-11-21T02:10:05;100444.97;;;8.62;100.00
2178;BME280;1095;50.992;6.798;2023-11-21T02:12:33;100441.41;;;8.63;100.00
2178;BME280;1095;50.992;6.798;2023-11-21T02:15:00;100445.72;;;8.54;100.00
2178;BME280;1095;50.992;6.798;2023-11-21T02:17:28;100451.59;;;8.56;100.00
2178;BME280;1095;50.992;6.798;2023-11-21T02:19:55;100448.09;;;8.48;100.00
2178;BME280;1095;50.992;6.798;2023-11-21T02:22:22;100455.25;;;8.46;100.00
2178;BME280;1095;50.992;6.798;2023-11-21T02:24:53;100453.81;;;8.51;100.00
2178;BME280;1095;50.992;6.798;2023-11-21T02:27:19;100454.28;;;8.47;100.00
2178;BME280;1095;50.992;6.798;2023-11-21T02:29:48;100465.91;;;8.52;100.00
2178;BME280;1095;50.992;6.798;2023-11-21T02:32:15;100461.06;;;8.57;100.00
2178;BME280;1095;50.992;6.798;2023-11-21T02:34:44;100471.63;;;8.56;100.00
2178;BME280;1095;50.992;6.798;2023-11-21T02:37:11;100470.19;;;8.71;100.00
2178;BME280;1095;50.992;6.798;2023-11-21T02:39:37;100458.31;;;8.59;100.00
2178;BME280;1095;50.992;6.798;2023-11-21T02:42:05;100466.38;;;8.65;100.00
2178;BME280;1095;50.992;6.798;2023-11-21T02:44:32;100463.97;;;8.54;100.00
2178;BME280;1095;50.992;6.798;2023-11-21T02:47:00;100460.38;;;8.55;100.00
2178;BME280;1095;50.992;6.798;2023-11-21T02:49:26;100465.84;;;8.62;100.00
2178;BME280;1095;50.992;6.798;2023-11-21T02:51:53;100463.00;;;8.55;100.00
2178;BME280;1095;50.992;6.798;2023-11-21T02:54:20;100468.06;;;8.57;100.00
2178;BME280;1095;50.992;6.798;2023-11-21T02:56:47;100463.53;;;8.59;100.00
2178;BME280;1095;50.992;6.798;2023-11-21T02:59:16;100464.09;;;8.53;100.00
2178;BME280;1095;50.992;6.798;2023-11-21T03:01:42;100473.00;;;8.60;100.00
2178;BME280;1095;50.992;6.798;2023-11-21T03:04:09;100466.44;;;8.56;100.00
2178;BME280;1095;50.992;6.798;2023-11-21T03:06:36;100462.84;;;8.57;100.00
2178;BME280;1095;50.992;6.798;2023-11-21T03:09:03;100472.69;;;8.63;100.00
2178;BME280;1095;50.992;6.798;2023-11-21T03:11:29;100469.81;;;8.66;100.00
2178;BME280;1095;50.992;6.798;2023-11-21T03:13:57;100473.38;;;8.65;100.00
2178;BME280;1095;50.992;6.798;2023-11-21T03:16:25;100469.41;;;8.61;100.00
2178;BME280;1095;50.992;6.798;2023-11-21T03:18:52;100483.13;;;8.63;100.00
2178;BME280;1095;50.992;6.798;2023-11-21T03:21:18;100484.47;;;8.67;100.00
2178;BME280;1095;50.992;6.798;2023-11-21T03:23:45;100481.88;;;8.67;100.00
2178;BME280;1095;50.992;6.798;2023-11-21T03:26:12;100488.59;;;8.70;100.00
2178;BME280;1095;50.992;6.798;2023-11-21T03:28:39;100483.22;;;8.71;100.00
2178;BME280;1095;50.992;6.798;2023-11-21T03:31:06;100492.16;;;8.69;100.00
2178;BME280;1095;50.992;6.798;2023-11-21T03:33:35;100491.47;;;8.67;100.00
2178;BME280;1095;50.992;6.798;2023-11-21T03:36:02;100494.63;;;8.70;100.00
2178;BME280;1095;50.992;6.798;2023-11-21T03:38:29;100504.25;;;8.70;100.00
2178;BME280;1095;50.992;6.798;2023-11-21T03:40:55;100497.91;;;8.72;100.00
2178;BME280;1095;50.992;6.798;2023-11-21T03:43:22;100491.34;;;8.68;100.00
2178;BME280;1095;50.992;6.798;2023-11-21T03:45:49;100507.28;;;8.65;100.00
2178;BME280;1095;50.992;6.798;2023-11-21T03:48:16;100512.34;;;8.67;100.00
2178;BME280;1095;50.992;6.798;2023-11-21T03:50:44;100516.47;;;8.69;100.00
2178;BME280;1095;50.992;6.798;2023-11-21T03:53:12;100522.34;;;8.71;100.00
2178;BME280;1095;50.992;6.798;2023-11-21T03:55:39;100529.50;;;8.69;100.00
2178;BME280;1095;50.992;6.798;2023-11-21T03:58:05;100528.69;;;8.69;100.00
2178;BME280;1095;50.992;6.798;2023-11-21T04:00:32;100539.97;;;8.59;100.00
2178;BME280;1095;50.992;6.798;2023-11-21T04:02:58;100534.84;;;8.50;100.00
2178;BME280;1095;50.992;6.798;2023-11-21T04:05:25;100534.91;;;8.58;100.00
2178;BME280;1095;50.992;6.798;2023-11-21T04:07:53;100535.72;;;8.58;100.00
2178;BME280;1095;50.992;6.798;2023-11-21T04:10:20;100543.03;;;8.55;100.00
2178;BME280;1095;50.992;6.798;2023-11-21T04:12:47;100544.75;;;8.64;100.00
2178;BME280;1095;50.992;6.798;2023-11-21T04:15:14;100537.22;;;8.61;100.00
2178;BME280;1095;50.992;6.798;2023-11-21T04:17:41;100543.41;;;8.60;100.00
2178;BME280;1095;50.992;6.798;2023-11-21T04:20:08;100551.09;;;8.61;100.00
2178;BME280;1095;50.992;6.798;2023-11-21T04:22:37;100547.38;;;8.64;100.00
2178;BME280;1095;50.992;6.798;2023-11-21T04:25:08;100548.44;;;8.71;100.00
2178;BME280;1095;50.992;6.798;2023-11-21T04:27:34;100550.28;;;8.61;100.00
2178;BME280;1095;50.992;6.798;2023-11-21T04:30:01;100558.09;;;8.61;100.00
2178;BME280;1095;50.992;6.798;2023-11-21T04:32:28;100552.59;;;8.64;100.00
2178;BME280;1095;50.992;6.798;2023-11-21T04:34:54;100549.97;;;8.64;100.00
2178;BME280;1095;50.992;6.798;2023-11-21T04:37:21;100541.09;;;8.57;100.00
2178;BME280;1095;50.992;6.798;2023-11-21T04:39:48;100544.28;;;8.51;100.00
2178;BME280;1095;50.992;6.798;2023-11-21T04:42:16;100549.16;;;8.63;100.00
2178;BME280;1095;50.992;6.798;2023-11-21T04:44:42;100543.69;;;8.57;100.00
2178;BME280;1095;50.992;6.798;2023-11-21T04:47:09;100555.09;;;8.56;100.00
2178;BME280;1095;50.992;6.798;2023-11-21T04:49:36;100555.78;;;8.58;100.00
2178;BME280;1095;50.992;6.798;2023-11-21T04:52:03;100555.38;;;8.53;100.00
2178;BME280;1095;50.992;6.798;2023-11-21T04:54:30;100564.84;;;8.54;100.00
2178;BME280;1095;50.992;6.798;2023-11-21T04:56:57;100559.63;;;8.54;100.00
2178;BME280;1095;50.992;6.798;2023-11-21T04:59:25;100558.97;;;8.52;100.00
2178;BME280;1095;50.992;6.798;2023-11-21T05:01:52;100567.38;;;8.46;100.00
2178;BME280;1095;50.992;6.798;2023-11-21T05:04:19;100571.34;;;8.50;100.00
2178;BME280;1095;50.992;6.798;2023-11-21T05:06:45;100566.50;;;8.55;100.00
2178;BME280;1095;50.992;6.798;2023-11-21T05:09:13;100572.09;;;8.60;100.00
2178;BME280;1095;50.992;6.798;2023-11-21T05:11:40;100574.19;;;8.56;100.00
2178;BME280;1095;50.992;6.798;2023-11-21T05:14:07;100571.13;;;8.61;100.00
2178;BME280;1095;50.992;6.798;2023-11-21T05:16:35;100570.75;;;8.56;100.00
2178;BME280;1095;50.992;6.798;2023-11-21T05:19:02;100582.44;;;8.52;100.00
2178;BME280;1095;50.992;6.798;2023-11-21T05:21:29;100577.38;;;8.50;100.00
2178;BME280;1095;50.992;6.798;2023-11-21T05:23:56;100594.97;;;8.48;100.00
2178;BME280;1095;50.992;6.798;2023-11-21T05:26:23;100592.50;;;8.47;100.00
2178;BME280;1095;50.992;6.798;2023-11-21T05:28:50;100595.78;;;8.49;100.00
2178;BME280;1095;50.992;6.798;2023-11-21T05:31:16;100596.34;;;8.43;100.00
2178;BME280;1095;50.992;6.798;2023-11-21T05:33:44;100601.56;;;8.43;100.00
2178;BME280;1095;50.992;6.798;2023-11-21T05:36:11;100604.84;;;8.45;100.00
2178;BME280;1095;50.992;6.798;2023-11-21T05:38:38;100607.84;;;8.50;100.00
2178;BME280;1095;50.992;6.798;2023-11-21T05:41:05;100613.94;;;8.41;100.00
2178;BME280;1095;50.992;6.798;2023-11-21T05:43:31;100617.75;;;8.46;100.00
2178;BME280;1095;50.992;6.798;2023-11-21T05:46:00;100620.91;;;8.50;100.00
2178;BME280;1095;50.992;6.798;2023-11-21T05:48:27;100618.56;;;8.47;100.00
2178;BME280;1095;50.992;6.798;2023-11-21T05:50:55;100619.25;;;8.49;100.00
2178;BME280;1095;50.992;6.798;2023-11-21T05:53:21;100616.53;;;8.41;100.00
2178;BME280;1095;50.992;6.798;2023-11-21T05:55:48;100619.69;;;8.35;100.00
2178;BME280;1095;50.992;6.798;2023-11-21T05:58:15;100626.81;;;8.42;100.00
2178;BME280;1095;50.992;6.798;2023-11-21T06:00:41;100635.06;;;8.38;100.00
2178;BME280;1095;50.992;6.798;2023-11-21T06:03:08;100639.47;;;8.37;100.00
2178;BME280;1095;50.992;6.798;2023-11-21T06:05:35;100646.84;;;8.42;100.00
2178;BME280;1095;50.992;6.798;2023-11-21T06:08:03;100655.38;;;8.44;100.00
2178;BME280;1095;50.992;6.798;2023-11-21T06:10:31;100647.41;;;8.36;100.00
2178;BME280;1095;50.992;6.798;2023-11-21T06:12:58;100651.13;;;8.33;100.00
2178;BME280;1095;50.992;6.798;2023-11-21T06:15:25;100658.13;;;8.32;100.00
2178;BME280;1095;50.992;6.798;2023-11-21T06:17:51;100658.81;;;8.35;100.00
2178;BME280;1095;50.992;6.798;2023-11-21T06:20:19;100663.88;;;8.36;100.00
2178;BME280;1095;50.992;6.798;2023-11-21T06:22:46;100666.34;;;8.38;100.00
2178;BME280;1095;50.992;6.798;2023-11-21T06:25:15;100669.50;;;8.41;100.00
2178;BME280;1095;50.992;6.798;2023-11-21T06:27:43;100676.38;;;8.32;100.00
2178;BME280;1095;50.992;6.798;2023-11-21T06:30:14;100678.13;;;8.32;100.00
2178;BME280;1095;50.992;6.798;2023-11-21T06:32:43;100678.84;;;8.34;100.00
2178;BME280;1095;50.992;6.798;2023-11-21T06:35:11;100681.31;;;8.36;100.00
2178;BME280;1095;50.992;6.798;2023-11-21T06:37:38;100681.69;;;8.31;100.00
2178;BME280;1095;50.992;6.798;2023-11-21T06:40:06;100680.06;;;8.30;100.00
2178;BME280;1095;50.992;6.798;2023-11-21T06:42:36;100690.78;;;8.37;100.00
2178;BME280;1095;50.992;6.798;2023-11-21T06:45:04;100694.91;;;8.39;100.00
2178;BME280;1095;50.992;6.798;2023-11-21T06:47:31;100695.72;;;8.40;100.00
2178;BME280;1095;50.992;6.798;2023-11-21T06:49:58;100693.78;;;8.42;100.00
2178;BME280;1095;50.992;6.798;2023-11-21T06:52:25;100703.25;;;8.43;100.00
2178;BME280;1095;50.992;6.798;2023-11-21T06:54:52;100702.31;;;8.44;100.00
2178;BME280;1095;50.992;6.798;2023-11-21T06:57:19;100708.88;;;8.48;100.00
2178;BME280;1095;50.992;6.798;2023-11-21T06:59:47;100704.78;;;8.45;100.00
2178;BME280;1095;50.992;6.798;2023-11-21T07:02:15;100713.84;;;8.41;100.00
2178;BME280;1095;50.992;6.798;2023-11-21T07:04:43;100716.03;;;8.46;100.00
2178;BME280;1095;50.992;6.798;2023-11-21T07:07:10;100725.03;;;8.51;100.00
2178;BME280;1095;50.992;6.798;2023-11-21T07:09:37;100724.75;;;8.54;100.00
2178;BME280;1095;50.992;6.798;2023-11-21T07:12:04;100735.75;;;8.58;100.00
2178;BME280;1095;50.992;6.798;2023-11-21T07:14:33;100739.72;;;8.62;100.00
2178;BME280;1095;50.992;6.798;2023-11-21T07:17:01;100742.88;;;8.65;100.00
2178;BME280;1095;50.992;6.798;2023-11-21T07:19:30;100744.78;;;8.73;100.00
2178;BME280;1095;50.992;6.798;2023-11-21T07:21:57;100754.09;;;8.76;100.00
2178;BME280;1095;50.992;6.798;2023-11-21T07:24:24;100753.00;;;8.78;100.00
2178;BME280;1095;50.992;6.798;2023-11-21T07:26:51;100765.06;;;8.89;100.00
2178;BME280;1095;50.992;6.798;2023-11-21T07:29:22;100771.41;;;8.86;100.00
2178;BME280;1095;50.992;6.798;2023-11-21T07:31:50;100774.41;;;8.91;100.00
2178;BME280;1095;50.992;6.798;2023-11-21T07:34:19;100768.63;;;8.97;100.00
2178;BME280;1095;50.992;6.798;2023-11-21T07:36:45;100773.53;;;9.01;100.00
2178;BME280;1095;50.992;6.798;2023-11-21T07:39:12;100770.09;;;9.00;100.00
2178;BME280;1095;50.992;6.798;2023-11-21T07:41:41;100773.38;;;9.02;100.00
2178;BME280;1095;50.992;6.798;2023-11-21T07:44:14;100783.25;;;9.08;100.00
2178;BME280;1095;50.992;6.798;2023-11-21T07:46:41;100779.41;;;9.12;100.00
2178;BME280;1095;50.992;6.798;2023-11-21T07:49:07;100774.88;;;9.05;100.00
2178;BME280;1095;50.992;6.798;2023-11-21T07:51:35;100782.94;;;9.21;100.00
2178;BME280;1095;50.992;6.798;2023-11-21T07:54:02;100783.78;;;9.21;100.00
2178;BME280;1095;50.992;6.798;2023-11-21T07:56:29;100789.38;;;9.26;100.00
2178;BME280;1095;50.992;6.798;2023-11-21T07:58:56;100779.22;;;9.23;100.00
2178;BME280;1095;50.992;6.798;2023-11-21T08:01:22;100787.31;;;9.30;100.00
2178;BME280;1095;50.992;6.798;2023-11-21T08:03:49;100791.38;;;9.42;100.00
2178;BME280;1095;50.992;6.798;2023-11-21T08:06:18;100791.19;;;9.53;100.00
2178;BME280;1095;50.992;6.798;2023-11-21T08:08:45;100791.19;;;9.53;100.00
2178;BME280;1095;50.992;6.798;2023-11-21T08:11:12;100803.41;;;9.53;100.00
2178;BME280;1095;50.992;6.798;2023-11-21T08:13:39;100808.78;;;9.51;100.00
2178;BME280;1095;50.992;6.798;2023-11-21T08:16:07;100808.94;;;9.50;100.00
2178;BME280;1095;50.992;6.798;2023-11-21T08:18:33;100822.38;;;9.55;100.00
2178;BME280;1095;50.992;6.798;2023-11-21T08:21:00;100829.06;;;9.67;100.00
2178;BME280;1095;50.992;6.798;2023-11-21T08:23:28;100829.94;;;9.58;100.00
2178;BME280;1095;50.992;6.798;2023-11-21T08:25:56;100826.88;;;9.62;100.00
2178;BME280;1095;50.992;6.798;2023-11-21T08:28:23;100830.91;;;9.57;100.00
2178;BME280;1095;50.992;6.798;2023-11-21T08:30:51;100829.25;;;9.56;100.00
2178;BME280;1095;50.992;6.798;2023-11-21T08:33:17;100833.78;;;9.54;100.00
2178;BME280;1095;50.992;6.798;2023-11-21T08:35:44;100842.84;;;9.59;100.00
2178;BME280;1095;50.992;6.798;2023-11-21T08:38:12;100843.91;;;9.67;100.00
2178;BME280;1095;50.992;6.798;2023-11-21T08:40:38;100840.91;;;9.61;100.00
2178;BME280;1095;50.992;6.798;2023-11-21T08:43:09;100839.63;;;9.75;100.00
2178;BME280;1095;50.992;6.798;2023-11-21T08:45:37;100837.34;;;9.62;100.00
2178;BME280;1095;50.992;6.798;2023-11-21T08:48:04;100840.91;;;9.61;100.00
2178;BME280;1095;50.992;6.798;2023-11-21T08:50:30;100849.19;;;9.57;100.00
2178;BME280;1095;50.992;6.798;2023-11-21T08:52:57;100852.19;;;9.62;100.00
2178;BME280;1095;50.992;6.798;2023-11-21T08:55:24;100861.16;;;9.87;100.00
2178;BME280;1095;50.992;6.798;2023-11-21T08:57:50;100867.28;;;9.95;100.00
2178;BME280;1095;50.992;6.798;2023-11-21T09:00:18;100870.13;;;10.02;100.00
2178;BME280;1095;50.992;6.798;2023-11-21T09:02:46;100872.66;;;9.94;100.00
2178;BME280;1095;50.992;6.798;2023-11-21T09:05:14;100869.25;;;10.11;100.00
2178;BME280;1095;50.992;6.798;2023-11-21T09:07:42;100871.44;;;10.16;100.00
2178;BME280;1095;50.992;6.798;2023-11-21T09:10:11;100873.53;;;10.12;100.00
2178;BME280;1095;50.992;6.798;2023-11-21T09:12:40;100862.78;;;10.15;100.00
2178;BME280;1095;50.992;6.798;2023-11-21T09:15:09;100867.63;;;10.10;100.00
2178;BME280;1095;50.992;6.798;2023-11-21T09:17:38;100872.03;;;10.10;100.00
2178;BME280;1095;50.992;6.798;2023-11-21T09:20:06;100884.56;;;10.06;100.00
2178;BME280;1095;50.992;6.798;2023-11-21T09:22:35;100883.63;;;9.97;100.00
2178;BME280;1095;50.992;6.798;2023-11-21T09:25:02;100890.38;;;10.00;100.00
2178;BME280;1095;50.992;6.798;2023-11-21T09:27:30;100889.69;;;9.98;100.00
2178;BME280;1095;50.992;6.798;2023-11-21T09:29:57;100892.41;;;10.06;100.00
2178;BME280;1095;50.992;6.798;2023-11-21T09:32:24;100900.94;;;10.08;100.00
2178;BME280;1095;50.992;6.798;2023-11-21T09:34:52;100903.97;;;10.04;100.00
2178;BME280;1095;50.992;6.798;2023-11-21T09:37:20;100903.72;;;9.97;100.00
2178;BME280;1095;50.992;6.798;2023-11-21T09:39:47;100910.06;;;9.94;100.00
2178;BME280;1095;50.992;6.798;2023-11-21T09:42:17;100917.78;;;9.96;100.00
2178;BME280;1095;50.992;6.798;2023-11-21T09:44:51;100917.47;;;9.99;100.00
2178;BME280;1095;50.992;6.798;2023-11-21T09:47:22;100918.16;;;10.01;100.00
2178;BME280;1095;50.992;6.798;2023-11-21T09:49:48;100919.56;;;9.95;100.00
2178;BME280;1095;50.992;6.798;2023-11-21T09:52:21;100924.47;;;10.08;100.00
2178;BME280;1095;50.992;6.798;2023-11-21T09:54:50;100919.91;;;10.10;100.00
2178;BME280;1095;50.992;6.798;2023-11-21T09:57:19;100927.69;;;10.29;100.00
2178;BME280;1095;50.992;6.798;2023-11-21T09:59:46;100923.53;;;10.37;100.00
2178;BME280;1095;50.992;6.798;2023-11-21T10:02:17;100930.88;;;10.23;100.00
2178;BME280;1095;50.992;6.798;2023-11-21T10:04:46;100932.53;;;10.24;100.00
2178;BME280;1095;50.992;6.798;2023-11-21T10:07:14;100931.56;;;10.43;100.00
2178;BME280;1095;50.992;6.798;2023-11-21T10:09:47;100928.94;;;10.43;100.00
2178;BME280;1095;50.992;6.798;2023-11-21T10:12:15;100931.72;;;10.42;100.00
2178;BME280;1095;50.992;6.798;2023-11-21T10:14:42;100935.25;;;10.50;100.00
2178;BME280;1095;50.992;6.798;2023-11-21T10:17:10;100932.63;;;10.50;100.00
2178;BME280;1095;50.992;6.798;2023-11-21T10:19:39;100924.78;;;10.33;100.00
2178;BME280;1095;50.992;6.798;2023-11-21T10:22:06;100929.88;;;10.52;100.00
2178;BME280;1095;50.992;6.798;2023-11-21T10:24:34;100928.75;;;10.54;100.00
2178;BME280;1095;50.992;6.798;2023-11-21T10:27:02;100932.34;;;10.53;100.00
2178;BME280;1095;50.992;6.798;2023-11-21T10:29:29;100921.88;;;10.71;100.00
2178;BME280;1095;50.992;6.798;2023-11-21T10:31:55;100926.28;;;10.88;100.00
2178;BME280;1095;50.992;6.798;2023-11-21T10:34:24;100918.13;;;10.91;100.00
2178;BME280;1095;50.992;6.798;2023-11-21T10:36:52;100923.38;;;10.74;100.00
2178;BME280;1095;50.992;6.798;2023-11-21T10:39:22;100920.25;;;10.70;100.00
2178;BME280;1095;50.992;6.798;2023-11-21T10:41:54;100930.34;;;10.65;100.00
2178;BME280;1095;50.992;6.798;2023-11-21T10:44:22;100927.56;;;10.67;100.00
2178;BME280;1095;50.992;6.798;2023-11-21T10:46:50;100941.84;;;10.72;100.00
2178;BME280;1095;50.992;6.798;2023-11-21T10:49:21;100939.22;;;10.72;100.00
2178;BME280;1095;50.992;6.798;2023-11-21T10:51:50;100937.91;;;10.86;100.00
2178;BME280;1095;50.992;6.798;2023-11-21T10:54:19;100939.00;;;10.83;100.00
2178;BME280;1095;50.992;6.798;2023-11-21T10:56:48;100934.81;;;10.90;100.00
2178;BME280;1095;50.992;6.798;2023-11-21T10:59:17;100945.75;;;10.86;100.00
2178;BME280;1095;50.992;6.798;2023-11-21T11:01:45;100937.06;;;10.85;100.00
2178;BME280;1095;50.992;6.798;2023-11-21T11:04:14;100943.63;;;10.89;100.00
2178;BME280;1095;50.992;6.798;2023-11-21T11:06:43;100940.00;;;10.82;100.00
2178;BME280;1095;50.992;6.798;2023-11-21T11:09:10;100948.78;;;10.99;100.00
2178;BME280;1095;50.992;6.798;2023-11-21T11:11:39;100953.44;;;11.05;100.00
2178;BME280;1095;50.992;6.798;2023-11-21T11:14:07;100947.66;;;11.02;100.00
2178;BME280;1095;50.992;6.798;2023-11-21T11:16:36;100950.50;;;11.08;100.00
2178;BME280;1095;50.992;6.798;2023-11-21T11:19:06;100946.31;;;10.97;100.00
2178;BME280;1095;50.992;6.798;2023-11-21T11:21:42;100951.84;;;10.94;100.00
2178;BME280;1095;50.992;6.798;2023-11-21T11:24:23;100958.22;;;10.92;100.00
2178;BME280;1095;50.992;6.798;2023-11-21T11:26:59;100960.38;;;10.96;100.00
2178;BME280;1095;50.992;6.798;2023-11-21T11:29:33;100957.53;;;11.08;100.00
2178;BME280;1095;50.992;6.798;2023-11-21T11:32:10;100952.06;;;11.19;100.00
2178;BME280;1095;50.992;6.798;2023-11-21T11:34:44;100949.38;;;11.28;100.00
2178;BME280;1095;50.992;6.798;2023-11-21T11:37:15;100939.78;;;11.19;100.00
2178;BME280;1095;50.992;6.798;2023-11-21T11:39:43;100945.34;;;10.98;100.00
2178;BME280;1095;50.992;6.798;2023-11-21T11:42:13;100954.06;;;10.81;100.00
2178;BME280;1095;50.992;6.798;2023-11-21T11:44:47;100958.84;;;10.86;100.00
2178;BME280;1095;50.992;6.798;2023-11-21T11:47:18;100958.75;;;10.78;100.00
2178;BME280;1095;50.992;6.798;2023-11-21T11:49:58;100962.78;;;11.08;100.00
2178;BME280;1095;50.992;6.798;2023-11-21T11:52:36;100962.31;;;10.94;100.00
2178;BME280;1095;50.992;6.798;2023-11-21T11:55:05;100958.44;;;10.98;100.00
2178;BME280;1095;50.992;6.798;2023-11-21T11:57:32;100962.09;;;11.06;100.00
2178;BME280;1095;50.992;6.798;2023-11-21T12:00:14;100966.06;;;10.92;100.00
2178;BME280;1095;50.992;6.798;2023-11-21T12:02:52;100973.25;;;10.90;100.00
2178;BME280;1095;50.992;6.798;2023-11-21T12:05:20;100961.66;;;10.92;100.00
2178;BME280;1095;50.992;6.798;2023-11-21T12:07:49;100957.09;;;10.94;100.00
2178;BME280;1095;50.992;6.798;2023-11-21T12:10:20;100965.03;;;10.85;100.00
2178;BME280;1095;50.992;6.798;2023-11-21T12:12:48;100974.03;;;10.82;100.00
2178;BME280;1095;50.992;6.798;2023-11-21T12:15:15;100975.34;;;10.69;100.00
2178;BME280;1095;50.992;6.798;2023-11-21T12:17:43;100977.00;;;10.70;100.00
2178;BME280;1095;50.992;6.798;2023-11-21T12:20:11;100986.97;;;10.84;100.00
2178;BME280;1095;50.992;6.798;2023-11-21T12:22:44;100996.50;;;10.93;100.00
2178;BME280;1095;50.992;6.798;2023-11-21T12:25:13;100995.69;;;10.75;100.00
2178;BME280;1095;50.992;6.798;2023-11-21T12:27:42;100994.66;;;10.85;100.00
2178;BME280;1095;50.992;6.798;2023-11-21T12:30:11;100989.34;;;10.95;100.00
2178;BME280;1095;50.992;6.798;2023-11-21T12:32:39;100989.72;;;10.82;100.00
2178;BME280;1095;50.992;6.798;2023-11-21T12:35:07;100982.09;;;10.71;100.00
2178;BME280;1095;50.992;6.798;2023-11-21T12:37:35;100987.47;;;10.87;100.00
2178;BME280;1095;50.992;6.798;2023-11-21T12:40:04;100989.34;;;10.95;100.00
2178;BME280;1095;50.992;6.798;2023-11-21T12:42:32;100996.81;;;11.08;100.00
2178;BME280;1095;50.992;6.798;2023-11-21T12:45:09;101000.19;;;11.18;100.00
2178;BME280;1095;50.992;6.798;2023-11-21T12:47:41;100987.53;;;11.13;100.00
2178;BME280;1095;50.992;6.798;2023-11-21T12:50:08;100996.41;;;11.38;100.00
2178;BME280;1095;50.992;6.798;2023-11-21T12:52:45;100990.56;;;11.44;100.00
2178;BME280;1095;50.992;6.798;2023-11-21T12:55:15;100987.91;;;11.62;100.00
2178;BME280;1095;50.992;6.798;2023-11-21T12:57:43;100989.47;;;11.73;100.00
2178;BME280;1095;50.992;6.798;2023-11-21T13:00:12;100987.34;;;11.76;100.00
2178;BME280;1095;50.992;6.798;2023-11-21T13:02:52;100990.22;;;11.91;100.00
2178;BME280;1095;50.992;6.798;2023-11-21T13:05:26;100992.47;;;11.78;100.00
2178;BME280;1095;50.992;6.798;2023-11-21T13:07:53;100994.59;;;11.56;100.00
2178;BME280;1095;50.992;6.798;2023-11-21T13:10:24;100993.66;;;11.66;100.00
2178;BME280;1095;50.992;6.798;2023-11-21T13:12:55;100994.28;;;11.59;100.00